ENAL Airport Information

Runway Information
Runway 07 Length 7592 ft width 148 ft
Elevation 34 ft Threshold 490 ft Heading 65
Runway 25 Length 7592 ft Width 148 ft
Elevation 48 ft Threshold 755 ft Heading 245
Airport Frequencies
Type ATIS Name ATIS Frequency 128.65 MHZ
Type TWR Name TWR Frequency 119.85 MHZ
Airport Navaids
Type NDB Name Vigra Frequency 355 KHZ
Type TACAN Name Vigra Frequency 112400 KHZ
Type VOR-DME Name Vigra Frequency 115800 KHZ
Airport Weather Information & NOTAM
Deprecated: The each() function is deprecated. This message will be suppressed on further calls in /storage/content/79/1005879/virtualnac.org/public_html/v2/lib/functions.php on line 164 ADDS - METARS form results

(1101 UTC 20 January 2021)
Data provider http://aviationweather.gov/metar/data/
 
METAR text: ENAL 201050Z 05007KT CAVOK 02/M06 Q0990
Conditions at: ENAL (ALESUND/VIGRA , NO) observed 1050 UTC 20 January 2021
Temperature: 2.0°C (36°F)
Dewpoint: -6.0°C (21°F) [RH = 55%]
Pressure (altimeter): 29.23 inches Hg (990.0 mb)
Winds: from the NE (50 degrees) at 8 MPH (7 knots; 3.6 m/s)
Visibility: 6 or more miles (10+ km)
Ceiling: ceiling and visibility are OK
Clouds: unknown
Weather: no significant weather observed at this time

METAR text: ENAL 201020Z 07006KT 040V100 CAVOK 01/M06 Q0991
Conditions at: ENAL (ALESUND/VIGRA , NO) observed 1020 UTC 20 January 2021
Temperature: 1.0°C (34°F)
Dewpoint: -6.0°C (21°F) [RH = 59%]
Pressure (altimeter): 29.26 inches Hg (991.0 mb)
Winds: from the ENE (70 degrees) at 7 MPH (6 knots; 3.1 m/s)
Visibility: 6 or more miles (10+ km)
Ceiling: ceiling and visibility are OK
Clouds: unknown
Weather: no significant weather observed at this time

Forecast for: ENAL (ALESUND/VIGRA , NO)
Text: TAF ENAL 200800Z 2009/2018 10012KT CAVOK
Forecast period: 0900 to 1800 UTC 20 January 2021
Forecast type: FROM: standard forecast or significant change
Winds: from the E (100 degrees) at 14 MPH (12 knots; 6.2 m/s)
Visibility: 6 or more miles (10+ km)
Ceiling: unknown
Clouds: missing
Weather: NSW  (no significant weather)